sensor_id;sensor_type;location;lat;lon;timestamp;temperature;humidity
9450;DHT22;4763;48.370;10.874;2023-12-29T00:02:03;7.90;99.90
9450;DHT22;4763;48.370;10.874;2023-12-29T00:04:50;7.80;99.90
9450;DHT22;4763;48.370;10.874;2023-12-29T00:07:37;7.70;99.90
9450;DHT22;4763;48.370;10.874;2023-12-29T00:10:25;7.60;99.90
9450;DHT22;4763;48.370;10.874;2023-12-29T00:13:12;7.60;99.90
9450;DHT22;4763;48.370;10.874;2023-12-29T00:15:59;7.60;99.90
9450;DHT22;4763;48.370;10.874;2023-12-29T00:18:46;7.60;99.90
9450;DHT22;4763;48.370;10.874;2023-12-29T00:21:33;7.50;99.90
9450;DHT22;4763;48.370;10.874;2023-12-29T00:24:20;7.50;99.90
9450;DHT22;4763;48.370;10.874;2023-12-29T00:27:09;7.40;99.90
9450;DHT22;4763;48.370;10.874;2023-12-29T00:29:56;7.40;99.90
9450;DHT22;4763;48.370;10.874;2023-12-29T00:32:43;7.30;99.90
9450;DHT22;4763;48.370;10.874;2023-12-29T00:35:30;7.30;99.90
9450;DHT22;4763;48.370;10.874;2023-12-29T00:38:17;7.20;99.90
9450;DHT22;4763;48.370;10.874;2023-12-29T00:41:05;7.20;99.90
9450;DHT22;4763;48.370;10.874;2023-12-29T00:43:54;7.10;99.90
9450;DHT22;4763;48.370;10.874;2023-12-29T00:46:41;7.20;99.90
9450;DHT22;4763;48.370;10.874;2023-12-29T00:49:28;7.20;99.90
9450;DHT22;4763;48.370;10.874;2023-12-29T00:52:15;7.10;99.90
9450;DHT22;4763;48.370;10.874;2023-12-29T00:55:02;7.00;99.90
9450;DHT22;4763;48.370;10.874;2023-12-29T00:57:51;6.90;99.90
9450;DHT22;4763;48.370;10.874;2023-12-29T01:00:39;6.80;99.90
9450;DHT22;4763;48.370;10.874;2023-12-29T01:03:26;6.60;99.90
9450;DHT22;4763;48.370;10.874;2023-12-29T01:06:13;6.60;99.90
9450;DHT22;4763;48.370;10.874;2023-12-29T01:09:00;6.50;99.90
9450;DHT22;4763;48.370;10.874;2023-12-29T01:11:48;6.50;99.90
9450;DHT22;4763;48.370;10.874;2023-12-29T01:14:35;6.50;99.90
9450;DHT22;4763;48.370;10.874;2023-12-29T01:17:23;6.50;99.90
9450;DHT22;4763;48.370;10.874;2023-12-29T01:20:13;7.00;99.90
9450;DHT22;4763;48.370;10.874;2023-12-29T01:23:00;7.10;99.90
9450;DHT22;4763;48.370;10.874;2023-12-29T01:25:47;7.20;99.90
9450;DHT22;4763;48.370;10.874;2023-12-29T01:28:34;7.10;99.90
9450;DHT22;4763;48.370;10.874;2023-12-29T01:31:22;7.30;99.90
9450;DHT22;4763;48.370;10.874;2023-12-29T01:34:10;7.20;99.90
9450;DHT22;4763;48.370;10.874;2023-12-29T01:36:57;7.30;99.90
9450;DHT22;4763;48.370;10.874;2023-12-29T01:39:44;7.30;99.90
9450;DHT22;4763;48.370;10.874;2023-12-29T01:42:31;7.40;99.90
9450;DHT22;4763;48.370;10.874;2023-12-29T01:45:24;7.60;99.90
9450;DHT22;4763;48.370;10.874;2023-12-29T01:48:12;7.60;99.90
9450;DHT22;4763;48.370;10.874;2023-12-29T01:51:01;7.50;99.90
9450;DHT22;4763;48.370;10.874;2023-12-29T01:53:48;7.30;99.90
9450;DHT22;4763;48.370;10.874;2023-12-29T01:56:36;7.50;99.90
9450;DHT22;4763;48.370;10.874;2023-12-29T01:59:24;7.40;99.90
9450;DHT22;4763;48.370;10.874;2023-12-29T02:02:12;7.40;99.90
9450;DHT22;4763;48.370;10.874;2023-12-29T02:05:01;7.30;99.90
9450;DHT22;4763;48.370;10.874;2023-12-29T02:07:51;7.20;99.90
9450;DHT22;4763;48.370;10.874;2023-12-29T02:10:40;7.20;99.90
9450;DHT22;4763;48.370;10.874;2023-12-29T02:13:27;7.30;99.90
9450;DHT22;4763;48.370;10.874;2023-12-29T02:16:19;7.30;99.90
9450;DHT22;4763;48.370;10.874;2023-12-29T02:19:18;7.30;99.90
9450;DHT22;4763;48.370;10.874;2023-12-29T02:22:08;7.40;99.90
9450;DHT22;4763;48.370;10.874;2023-12-29T02:24:57;7.50;99.90
9450;DHT22;4763;48.370;10.874;2023-12-29T02:27:50;7.50;99.90
9450;DHT22;4763;48.370;10.874;2023-12-29T02:30:43;7.40;99.90
9450;DHT22;4763;48.370;10.874;2023-12-29T02:33:33;7.50;99.90
9450;DHT22;4763;48.370;10.874;2023-12-29T02:36:24;7.50;99.90
9450;DHT22;4763;48.370;10.874;2023-12-29T02:39:11;7.50;99.90
9450;DHT22;4763;48.370;10.874;2023-12-29T02:41:59;7.40;99.90
9450;DHT22;4763;48.370;10.874;2023-12-29T02:44:47;7.40;99.90
9450;DHT22;4763;48.370;10.874;2023-12-29T02:47:34;7.50;99.90
9450;DHT22;4763;48.370;10.874;2023-12-29T02:50:21;7.30;99.90
9450;DHT22;4763;48.370;10.874;2023-12-29T02:53:08;7.30;99.90
9450;DHT22;4763;48.370;10.874;2023-12-29T02:55:55;7.30;99.90
9450;DHT22;4763;48.370;10.874;2023-12-29T02:58:43;7.40;99.90
9450;DHT22;4763;48.370;10.874;2023-12-29T03:01:31;7.40;99.90
9450;DHT22;4763;48.370;10.874;2023-12-29T03:04:18;7.30;99.90
9450;DHT22;4763;48.370;10.874;2023-12-29T03:07:05;7.40;99.90
9450;DHT22;4763;48.370;10.874;2023-12-29T03:09:52;7.30;99.90
9450;DHT22;4763;48.370;10.874;2023-12-29T03:12:40;7.40;99.90
9450;DHT22;4763;48.370;10.874;2023-12-29T03:15:28;7.40;99.90
9450;DHT22;4763;48.370;10.874;2023-12-29T03:18:15;7.40;99.90
9450;DHT22;4763;48.370;10.874;2023-12-29T03:21:02;7.30;99.90
9450;DHT22;4763;48.370;10.874;2023-12-29T03:23:49;7.40;99.90
9450;DHT22;4763;48.370;10.874;2023-12-29T03:26:36;7.40;99.90
9450;DHT22;4763;48.370;10.874;2023-12-29T03:29:23;7.40;99.90
9450;DHT22;4763;48.370;10.874;2023-12-29T03:32:12;7.30;99.90
9450;DHT22;4763;48.370;10.874;2023-12-29T03:35:00;7.50;99.90
9450;DHT22;4763;48.370;10.874;2023-12-29T03:37:47;7.50;99.90
9450;DHT22;4763;48.370;10.874;2023-12-29T03:40:34;7.70;99.90
9450;DHT22;4763;48.370;10.874;2023-12-29T03:43:21;7.70;99.90
9450;DHT22;4763;48.370;10.874;2023-12-29T03:46:15;7.70;99.90
9450;DHT22;4763;48.370;10.874;2023-12-29T03:49:04;7.80;99.90
9450;DHT22;4763;48.370;10.874;2023-12-29T03:51:51;7.80;99.90
9450;DHT22;4763;48.370;10.874;2023-12-29T03:54:38;7.80;99.90
9450;DHT22;4763;48.370;10.874;2023-12-29T03:57:25;7.90;99.90
9450;DHT22;4763;48.370;10.874;2023-12-29T04:00:14;7.80;99.90
9450;DHT22;4763;48.370;10.874;2023-12-29T04:03:01;7.90;99.90
9450;DHT22;4763;48.370;10.874;2023-12-29T04:05:49;7.90;99.90
9450;DHT22;4763;48.370;10.874;2023-12-29T04:08:37;7.90;99.90
9450;DHT22;4763;48.370;10.874;2023-12-29T04:11:24;8.00;99.90
9450;DHT22;4763;48.370;10.874;2023-12-29T04:14:11;8.00;99.90
9450;DHT22;4763;48.370;10.874;2023-12-29T04:16:59;8.00;99.90
9450;DHT22;4763;48.370;10.874;2023-12-29T04:19:49;8.00;99.90
9450;DHT22;4763;48.370;10.874;2023-12-29T04:22:37;8.10;99.90
9450;DHT22;4763;48.370;10.874;2023-12-29T04:25:24;8.00;99.90
9450;DHT22;4763;48.370;10.874;2023-12-29T04:28:11;8.00;99.90
9450;DHT22;4763;48.370;10.874;2023-12-29T04:30:58;8.00;99.90
9450;DHT22;4763;48.370;10.874;2023-12-29T04:33:45;8.00;99.90
9450;DHT22;4763;48.370;10.874;2023-12-29T04:36:32;8.00;99.90
9450;DHT22;4763;48.370;10.874;2023-12-29T04:39:21;8.10;99.90
9450;DHT22;4763;48.370;10.874;2023-12-29T04:42:08;8.10;99.90
9450;DHT22;4763;48.370;10.874;2023-12-29T04:44:55;8.00;99.90
9450;DHT22;4763;48.370;10.874;2023-12-29T04:47:42;8.10;99.90
9450;DHT22;4763;48.370;10.874;2023-12-29T04:50:29;8.10;99.90
9450;DHT22;4763;48.370;10.874;2023-12-29T04:53:16;8.10;99.90
9450;DHT22;4763;48.370;10.874;2023-12-29T04:56:05;8.10;99.90
9450;DHT22;4763;48.370;10.874;2023-12-29T04:58:52;8.00;99.90
9450;DHT22;4763;48.370;10.874;2023-12-29T05:01:39;8.10;99.90
9450;DHT22;4763;48.370;10.874;2023-12-29T05:04:26;8.00;99.90
9450;DHT22;4763;48.370;10.874;2023-12-29T05:07:13;8.00;99.90
9450;DHT22;4763;48.370;10.874;2023-12-29T05:10:00;8.10;99.90
9450;DHT22;4763;48.370;10.874;2023-12-29T05:12:49;8.10;99.90
9450;DHT22;4763;48.370;10.874;2023-12-29T05:15:36;8.20;99.90
9450;DHT22;4763;48.370;10.874;2023-12-29T05:18:23;8.30;99.90
9450;DHT22;4763;48.370;10.874;2023-12-29T05:21:14;8.40;99.90
9450;DHT22;4763;48.370;10.874;2023-12-29T05:24:02;8.30;99.90
9450;DHT22;4763;48.370;10.874;2023-12-29T05:26:50;8.40;99.90
9450;DHT22;4763;48.370;10.874;2023-12-29T05:29:38;8.40;99.90
9450;DHT22;4763;48.370;10.874;2023-12-29T05:32:25;8.40;99.90
9450;DHT22;4763;48.370;10.874;2023-12-29T05:35:12;8.50;99.90
9450;DHT22;4763;48.370;10.874;2023-12-29T05:37:59;8.60;99.90
9450;DHT22;4763;48.370;10.874;2023-12-29T05:40:46;8.50;99.90
9450;DHT22;4763;48.370;10.874;2023-12-29T05:43:34;8.50;99.90
9450;DHT22;4763;48.370;10.874;2023-12-29T05:46:22;8.60;99.90
9450;DHT22;4763;48.370;10.874;2023-12-29T05:49:09;8.60;99.90
9450;DHT22;4763;48.370;10.874;2023-12-29T05:51:56;8.60;99.90
9450;DHT22;4763;48.370;10.874;2023-12-29T05:54:43;8.60;99.90
9450;DHT22;4763;48.370;10.874;2023-12-29T05:57:30;8.50;99.90
9450;DHT22;4763;48.370;10.874;2023-12-29T06:00:17;8.70;99.90
9450;DHT22;4763;48.370;10.874;2023-12-29T06:03:06;8.50;99.90
9450;DHT22;4763;48.370;10.874;2023-12-29T06:05:53;8.50;99.90
9450;DHT22;4763;48.370;10.874;2023-12-29T06:08:40;8.40;99.90
9450;DHT22;4763;48.370;10.874;2023-12-29T06:11:27;8.50;99.90
9450;DHT22;4763;48.370;10.874;2023-12-29T06:14:14;8.50;99.90
9450;DHT22;4763;48.370;10.874;2023-12-29T06:17:01;8.50;99.90
9450;DHT22;4763;48.370;10.874;2023-12-29T06:19:50;8.50;99.90
9450;DHT22;4763;48.370;10.874;2023-12-29T06:22:39;8.50;99.90
9450;DHT22;4763;48.370;10.874;2023-12-29T06:25:26;8.30;99.90
9450;DHT22;4763;48.370;10.874;2023-12-29T06:28:13;8.30;99.90
9450;DHT22;4763;48.370;10.874;2023-12-29T06:31:00;8.40;99.90
9450;DHT22;4763;48.370;10.874;2023-12-29T06:33:49;8.30;99.90
9450;DHT22;4763;48.370;10.874;2023-12-29T06:36:37;8.30;99.90
9450;DHT22;4763;48.370;10.874;2023-12-29T06:39:24;8.50;99.90
9450;DHT22;4763;48.370;10.874;2023-12-29T06:42:11;8.40;99.90
9450;DHT22;4763;48.370;10.874;2023-12-29T06:44:58;8.50;99.90
9450;DHT22;4763;48.370;10.874;2023-12-29T06:47:45;8.40;99.90
9450;DHT22;4763;48.370;10.874;2023-12-29T06:50:32;8.40;99.90
9450;DHT22;4763;48.370;10.874;2023-12-29T06:53:21;8.50;99.90
9450;DHT22;4763;48.370;10.874;2023-12-29T06:56:12;8.40;99.90
9450;DHT22;4763;48.370;10.874;2023-12-29T06:59:00;8.50;99.90
9450;DHT22;4763;48.370;10.874;2023-12-29T07:01:47;8.60;99.90
9450;DHT22;4763;48.370;10.874;2023-12-29T07:04:34;8.60;99.90
9450;DHT22;4763;48.370;10.874;2023-12-29T07:07:21;8.60;99.90
9450;DHT22;4763;48.370;10.874;2023-12-29T07:10:12;8.60;99.90
9450;DHT22;4763;48.370;10.874;2023-12-29T07:12:59;8.50;99.90
9450;DHT22;4763;48.370;10.874;2023-12-29T07:15:47;8.70;99.90
9450;DHT22;4763;48.370;10.874;2023-12-29T07:18:34;8.70;99.90
9450;DHT22;4763;48.370;10.874;2023-12-29T07:21:21;8.70;99.90
9450;DHT22;4763;48.370;10.874;2023-12-29T07:24:08;8.70;99.90
9450;DHT22;4763;48.370;10.874;2023-12-29T07:26:56;8.60;99.90
9450;DHT22;4763;48.370;10.874;2023-12-29T07:29:44;8.60;99.90
9450;DHT22;4763;48.370;10.874;2023-12-29T07:32:31;8.60;99.90
9450;DHT22;4763;48.370;10.874;2023-12-29T07:35:18;8.60;99.90
9450;DHT22;4763;48.370;10.874;2023-12-29T07:38:05;8.60;99.90
9450;DHT22;4763;48.370;10.874;2023-12-29T07:40:52;8.50;99.90
9450;DHT22;4763;48.370;10.874;2023-12-29T07:43:41;8.60;99.90
9450;DHT22;4763;48.370;10.874;2023-12-29T07:46:28;8.50;99.90
9450;DHT22;4763;48.370;10.874;2023-12-29T07:49:15;8.50;99.90
9450;DHT22;4763;48.370;10.874;2023-12-29T07:52:02;8.50;99.90
9450;DHT22;4763;48.370;10.874;2023-12-29T07:54:49;8.50;99.90
9450;DHT22;4763;48.370;10.874;2023-12-29T07:57:36;8.60;99.90
9450;DHT22;4763;48.370;10.874;2023-12-29T08:00:24;8.60;99.90
9450;DHT22;4763;48.370;10.874;2023-12-29T08:03:12;8.60;99.90
9450;DHT22;4763;48.370;10.874;2023-12-29T08:05:59;8.60;99.90
9450;DHT22;4763;48.370;10.874;2023-12-29T08:08:46;8.60;99.90
9450;DHT22;4763;48.370;10.874;2023-12-29T08:11:33;8.60;99.90
9450;DHT22;4763;48.370;10.874;2023-12-29T08:14:20;8.60;99.90
9450;DHT22;4763;48.370;10.874;2023-12-29T08:17:09;8.60;99.90
9450;DHT22;4763;48.370;10.874;2023-12-29T08:19:56;8.70;99.90
9450;DHT22;4763;48.370;10.874;2023-12-29T08:22:43;8.70;99.90
9450;DHT22;4763;48.370;10.874;2023-12-29T08:25:30;8.80;99.90
9450;DHT22;4763;48.370;10.874;2023-12-29T08:28:17;8.80;99.90
9450;DHT22;4763;48.370;10.874;2023-12-29T08:31:04;8.80;99.90
9450;DHT22;4763;48.370;10.874;2023-12-29T08:33:52;8.90;99.90
9450;DHT22;4763;48.370;10.874;2023-12-29T08:36:39;8.80;99.90
9450;DHT22;4763;48.370;10.874;2023-12-29T08:39:26;8.90;99.90
9450;DHT22;4763;48.370;10.874;2023-12-29T08:42:13;9.10;99.90
9450;DHT22;4763;48.370;10.874;2023-12-29T08:45:01;9.10;99.90
9450;DHT22;4763;48.370;10.874;2023-12-29T08:47:48;9.20;99.90
9450;DHT22;4763;48.370;10.874;2023-12-29T08:50:37;9.30;99.90
9450;DHT22;4763;48.370;10.874;2023-12-29T08:53:24;9.30;99.90
9450;DHT22;4763;48.370;10.874;2023-12-29T08:56:11;9.40;99.90
9450;DHT22;4763;48.370;10.874;2023-12-29T08:58:59;9.40;99.90
9450;DHT22;4763;48.370;10.874;2023-12-29T09:01:46;9.40;99.90
9450;DHT22;4763;48.370;10.874;2023-12-29T09:04:33;9.40;99.90
9450;DHT22;4763;48.370;10.874;2023-12-29T09:07:22;9.50;99.90
9450;DHT22;4763;48.370;10.874;2023-12-29T09:10:09;9.50;99.90
9450;DHT22;4763;48.370;10.874;2023-12-29T09:12:58;9.40;99.90
9450;DHT22;4763;48.370;10.874;2023-12-29T09:15:45;9.60;99.90
9450;DHT22;4763;48.370;10.874;2023-12-29T09:18:32;9.60;99.90
9450;DHT22;4763;48.370;10.874;2023-12-29T09:21:19;9.60;99.90
9450;DHT22;4763;48.370;10.874;2023-12-29T09:24:07;9.80;99.90
9450;DHT22;4763;48.370;10.874;2023-12-29T09:26:55;9.80;99.90
9450;DHT22;4763;48.370;10.874;2023-12-29T09:29:42;9.90;99.90
9450;DHT22;4763;48.370;10.874;2023-12-29T09:32:29;9.90;99.90
9450;DHT22;4763;48.370;10.874;2023-12-29T09:35:16;10.00;99.90
9450;DHT22;4763;48.370;10.874;2023-12-29T09:38:03;10.10;99.90
9450;DHT22;4763;48.370;10.874;2023-12-29T09:40:52;10.10;99.90
9450;DHT22;4763;48.370;10.874;2023-12-29T09:43:40;10.20;99.90
9450;DHT22;4763;48.370;10.874;2023-12-29T09:46:31;10.20;99.90
9450;DHT22;4763;48.370;10.874;2023-12-29T09:49:19;10.30;99.90
9450;DHT22;4763;48.370;10.874;2023-12-29T09:52:07;10.30;99.90
9450;DHT22;4763;48.370;10.874;2023-12-29T09:54:56;10.30;99.90
9450;DHT22;4763;48.370;10.874;2023-12-29T09:57:47;10.30;99.90
9450;DHT22;4763;48.370;10.874;2023-12-29T10:00:34;10.30;99.90
9450;DHT22;4763;48.370;10.874;2023-12-29T10:03:21;10.50;99.90
9450;DHT22;4763;48.370;10.874;2023-12-29T10:06:09;10.50;99.90
9450;DHT22;4763;48.370;10.874;2023-12-29T10:09:00;10.50;99.90
9450;DHT22;4763;48.370;10.874;2023-12-29T10:11:51;10.60;99.90
9450;DHT22;4763;48.370;10.874;2023-12-29T10:14:46;10.70;99.90
9450;DHT22;4763;48.370;10.874;2023-12-29T10:17:42;10.70;99.90
9450;DHT22;4763;48.370;10.874;2023-12-29T10:20:40;10.70;99.90
9450;DHT22;4763;48.370;10.874;2023-12-29T10:23:35;10.80;99.90
9450;DHT22;4763;48.370;10.874;2023-12-29T10:26:23;10.80;99.90
9450;DHT22;4763;48.370;10.874;2023-12-29T10:29:11;10.80;99.90
9450;DHT22;4763;48.370;10.874;2023-12-29T10:32:00;10.90;99.90
9450;DHT22;4763;48.370;10.874;2023-12-29T10:34:47;10.80;99.90
9450;DHT22;4763;48.370;10.874;2023-12-29T10:37:34;10.90;99.90
9450;DHT22;4763;48.370;10.874;2023-12-29T10:40:22;10.90;99.90
9450;DHT22;4763;48.370;10.874;2023-12-29T10:43:09;10.90;99.90
9450;DHT22;4763;48.370;10.874;2023-12-29T10:46:05;10.90;99.90
9450;DHT22;4763;48.370;10.874;2023-12-29T10:49:06;10.80;99.90
9450;DHT22;4763;48.370;10.874;2023-12-29T10:51:54;10.80;99.90
9450;DHT22;4763;48.370;10.874;2023-12-29T10:54:41;10.80;99.90
9450;DHT22;4763;48.370;10.874;2023-12-29T10:57:28;10.80;99.90
9450;DHT22;4763;48.370;10.874;2023-12-29T11:00:15;10.80;99.90
9450;DHT22;4763;48.370;10.874;2023-12-29T11:03:03;10.90;99.90
9450;DHT22;4763;48.370;10.874;2023-12-29T11:05:58;11.00;99.90
9450;DHT22;4763;48.370;10.874;2023-12-29T11:08:46;11.10;99.90
9450;DHT22;4763;48.370;10.874;2023-12-29T11:11:34;11.10;99.90
9450;DHT22;4763;48.370;10.874;2023-12-29T11:14:23;11.20;99.90
9450;DHT22;4763;48.370;10.874;2023-12-29T11:17:10;11.30;99.90
9450;DHT22;4763;48.370;10.874;2023-12-29T11:19:59;11.40;99.90
9450;DHT22;4763;48.370;10.874;2023-12-29T11:22:49;11.50;99.90
9450;DHT22;4763;48.370;10.874;2023-12-29T11:25:36;11.50;99.90
9450;DHT22;4763;48.370;10.874;2023-12-29T11:28:24;11.50;99.90
9450;DHT22;4763;48.370;10.874;2023-12-29T11:31:12;11.50;99.90
9450;DHT22;4763;48.370;10.874;2023-12-29T11:34:03;11.50;99.90
9450;DHT22;4763;48.370;10.874;2023-12-29T11:36:57;11.40;99.90
9450;DHT22;4763;48.370;10.874;2023-12-29T11:39:52;11.50;99.90
9450;DHT22;4763;48.370;10.874;2023-12-29T11:42:44;11.40;99.90
9450;DHT22;4763;48.370;10.874;2023-12-29T11:45:34;11.30;99.90
9450;DHT22;4763;48.370;10.874;2023-12-29T11:48:53;11.30;99.90
9450;DHT22;4763;48.370;10.874;2023-12-29T11:51:42;11.30;99.90
9450;DHT22;4763;48.370;10.874;2023-12-29T11:54:30;11.30;99.90
9450;DHT22;4763;48.370;10.874;2023-12-29T11:57:31;11.30;99.90
9450;DHT22;4763;48.370;10.874;2023-12-29T12:00:18;11.30;99.90
9450;DHT22;4763;48.370;10.874;2023-12-29T12:03:14;11.30;99.90
9450;DHT22;4763;48.370;10.874;2023-12-29T12:06:01;11.30;99.90
9450;DHT22;4763;48.370;10.874;2023-12-29T12:09:15;11.30;99.90
9450;DHT22;4763;48.370;10.874;2023-12-29T12:12:03;11.20;99.90
9450;DHT22;4763;48.370;10.874;2023-12-29T12:14:53;11.30;99.90
9450;DHT22;4763;48.370;10.874;2023-12-29T12:17:41;11.20;99.90
9450;DHT22;4763;48.370;10.874;2023-12-29T12:20:28;11.20;99.90
9450;DHT22;4763;48.370;10.874;2023-12-29T12:23:17;11.10;99.90
9450;DHT22;4763;48.370;10.874;2023-12-29T12:33:39;11.00;99.90
9450;DHT22;4763;48.370;10.874;2023-12-29T12:43:59;11.00;99.90
9450;DHT22;4763;48.370;10.874;2023-12-29T12:46:50;11.00;99.90
9450;DHT22;4763;48.370;10.874;2023-12-29T12:49:40;11.10;99.90
9450;DHT22;4763;48.370;10.874;2023-12-29T12:52:31;11.00;99.90
9450;DHT22;4763;48.370;10.874;2023-12-29T12:55:19;11.00;99.90
9450;DHT22;4763;48.370;10.874;2023-12-29T12:58:06;11.10;99.90
9450;DHT22;4763;48.370;10.874;2023-12-29T13:00:53;11.10;99.90
9450;DHT22;4763;48.370;10.874;2023-12-29T13:03:43;11.10;99.90
9450;DHT22;4763;48.370;10.874;2023-12-29T13:06:33;11.10;99.90
9450;DHT22;4763;48.370;10.874;2023-12-29T13:09:20;11.10;99.90
9450;DHT22;4763;48.370;10.874;2023-12-29T13:12:09;11.10;99.90
9450;DHT22;4763;48.370;10.874;2023-12-29T13:15:05;11.10;99.90
9450;DHT22;4763;48.370;10.874;2023-12-29T13:17:52;11.10;99.90
9450;DHT22;4763;48.370;10.874;2023-12-29T13:20:46;11.20;99.90
9450;DHT22;4763;48.370;10.874;2023-12-29T13:23:35;11.10;99.90
9450;DHT22;4763;48.370;10.874;2023-12-29T13:26:24;11.20;99.90
9450;DHT22;4763;48.370;10.874;2023-12-29T13:29:13;11.10;99.90
9450;DHT22;4763;48.370;10.874;2023-12-29T13:32:04;11.10;99.90
9450;DHT22;4763;48.370;10.874;2023-12-29T13:34:56;11.00;99.90
9450;DHT22;4763;48.370;10.874;2023-12-29T13:37:52;11.00;99.90
9450;DHT22;4763;48.370;10.874;2023-12-29T13:40:54;11.10;99.90
9450;DHT22;4763;48.370;10.874;2023-12-29T13:43:43;11.10;99.90
9450;DHT22;4763;48.370;10.874;2023-12-29T13:46:32;11.00;99.90
9450;DHT22;4763;48.370;10.874;2023-12-29T13:49:19;11.00;99.90
9450;DHT22;4763;48.370;10.874;2023-12-29T13:52:07;11.00;99.90
9450;DHT22;4763;48.370;10.874;2023-12-29T13:54:54;11.00;99.90
9450;DHT22;4763;48.370;10.874;2023-12-29T13:57:42;10.90;99.90
9450;DHT22;4763;48.370;10.874;2023-12-29T14:00:31;10.90;99.90
9450;DHT22;4763;48.370;10.874;2023-12-29T14:03:26;10.90;99.90
9450;DHT22;4763;48.370;10.874;2023-12-29T14:06:21;10.80;99.90
9450;DHT22;4763;48.370;10.874;2023-12-29T14:09:14;10.80;99.90
9450;DHT22;4763;48.370;10.874;2023-12-29T14:12:02;10.80;99.90
9450;DHT22;4763;48.370;10.874;2023-12-29T14:14:51;10.80;99.90
9450;DHT22;4763;48.370;10.874;2023-12-29T14:17:38;10.70;99.90
9450;DHT22;4763;48.370;10.874;2023-12-29T14:20:33;10.70;99.90
9450;DHT22;4763;48.370;10.874;2023-12-29T14:23:20;10.70;99.90
9450;DHT22;4763;48.370;10.874;2023-12-29T14:26:08;10.80;99.90
9450;DHT22;4763;48.370;10.874;2023-12-29T14:29:03;10.70;99.90
9450;DHT22;4763;48.370;10.874;2023-12-29T14:31:52;10.70;99.90
9450;DHT22;4763;48.370;10.874;2023-12-29T14:34:41;10.70;99.90
9450;DHT22;4763;48.370;10.874;2023-12-29T14:37:28;10.60;99.90
9450;DHT22;4763;48.370;10.874;2023-12-29T14:40:15;10.60;99.90
9450;DHT22;4763;48.370;10.874;2023-12-29T14:43:03;10.60;99.90
9450;DHT22;4763;48.370;10.874;2023-12-29T14:45:50;10.60;99.90
9450;DHT22;4763;48.370;10.874;2023-12-29T14:48:38;10.50;99.90
9450;DHT22;4763;48.370;10.874;2023-12-29T14:51:25;10.50;99.90
9450;DHT22;4763;48.370;10.874;2023-12-29T14:54:12;10.50;99.90
9450;DHT22;4763;48.370;10.874;2023-12-29T14:57:00;10.50;99.90
9450;DHT22;4763;48.370;10.874;2023-12-29T14:59:47;10.50;99.90
9450;DHT22;4763;48.370;10.874;2023-12-29T15:02:34;10.30;99.90
9450;DHT22;4763;48.370;10.874;2023-12-29T15:05:22;10.30;99.90
9450;DHT22;4763;48.370;10.874;2023-12-29T15:08:09;10.30;99.90
9450;DHT22;4763;48.370;10.874;2023-12-29T15:10:56;10.20;99.90
9450;DHT22;4763;48.370;10.874;2023-12-29T15:13:44;10.20;99.90
9450;DHT22;4763;48.370;10.874;2023-12-29T15:16:31;10.10;99.90
9450;DHT22;4763;48.370;10.874;2023-12-29T15:19:18;10.10;99.90
9450;DHT22;4763;48.370;10.874;2023-12-29T15:22:07;10.00;99.90
9450;DHT22;4763;48.370;10.874;2023-12-29T15:24:54;10.00;99.90
9450;DHT22;4763;48.370;10.874;2023-12-29T15:27:41;10.00;99.90
9450;DHT22;4763;48.370;10.874;2023-12-29T15:30:28;10.00;99.90
9450;DHT22;4763;48.370;10.874;2023-12-29T15:33:15;10.00;99.90
9450;DHT22;4763;48.370;10.874;2023-12-29T15:36:02;9.90;99.90
9450;DHT22;4763;48.370;10.874;2023-12-29T15:38:51;9.80;99.90
9450;DHT22;4763;48.370;10.874;2023-12-29T15:41:38;9.80;99.90
9450;DHT22;4763;48.370;10.874;2023-12-29T15:44:25;9.80;99.90
9450;DHT22;4763;48.370;10.874;2023-12-29T15:47:12;9.70;99.90
9450;DHT22;4763;48.370;10.874;2023-12-29T15:49:59;9.60;99.90
9450;DHT22;4763;48.370;10.874;2023-12-29T15:52:46;9.60;99.90
9450;DHT22;4763;48.370;10.874;2023-12-29T15:55:35;9.40;99.90
9450;DHT22;4763;48.370;10.874;2023-12-29T15:58:22;9.40;99.90
9450;DHT22;4763;48.370;10.874;2023-12-29T16:01:09;9.40;99.90
9450;DHT22;4763;48.370;10.874;2023-12-29T16:03:56;9.40;99.90
9450;DHT22;4763;48.370;10.874;2023-12-29T16:06:44;9.30;99.90
9450;DHT22;4763;48.370;10.874;2023-12-29T16:09:31;9.30;99.90
9450;DHT22;4763;48.370;10.874;2023-12-29T16:12:19;9.20;99.90
9450;DHT22;4763;48.370;10.874;2023-12-29T16:15:06;9.30;99.90
9450;DHT22;4763;48.370;10.874;2023-12-29T16:17:55;9.30;99.90
9450;DHT22;4763;48.370;10.874;2023-12-29T16:20:42;9.30;99.90
9450;DHT22;4763;48.370;10.874;2023-12-29T16:23:29;9.40;99.90
9450;DHT22;4763;48.370;10.874;2023-12-29T16:26:16;9.20;99.90
9450;DHT22;4763;48.370;10.874;2023-12-29T16:29:05;9.30;99.90
9450;DHT22;4763;48.370;10.874;2023-12-29T16:46:59;9.00;99.90
9450;DHT22;4763;48.370;10.874;2023-12-29T16:49:46;9.00;99.90
9450;DHT22;4763;48.370;10.874;2023-12-29T16:52:33;9.10;99.90
9450;DHT22;4763;48.370;10.874;2023-12-29T16:55:20;9.10;99.90
9450;DHT22;4763;48.370;10.874;2023-12-29T16:58:07;9.20;99.90
9450;DHT22;4763;48.370;10.874;2023-12-29T17:00:54;9.10;99.90
9450;DHT22;4763;48.370;10.874;2023-12-29T17:03:43;9.10;99.90
9450;DHT22;4763;48.370;10.874;2023-12-29T17:06:31;9.10;99.90
9450;DHT22;4763;48.370;10.874;2023-12-29T17:09:18;9.00;99.90
9450;DHT22;4763;48.370;10.874;2023-12-29T17:12:06;8.90;99.90
9450;DHT22;4763;48.370;10.874;2023-12-29T17:14:53;8.90;99.90
9450;DHT22;4763;48.370;10.874;2023-12-29T17:17:40;8.90;99.90
9450;DHT22;4763;48.370;10.874;2023-12-29T17:20:29;8.90;99.90
9450;DHT22;4763;48.370;10.874;2023-12-29T17:23:17;8.80;99.90
9450;DHT22;4763;48.370;10.874;2023-12-29T17:26:09;8.80;99.90
9450;DHT22;4763;48.370;10.874;2023-12-29T17:28:57;8.80;99.90
9450;DHT22;4763;48.370;10.874;2023-12-29T17:31:44;8.90;99.90
9450;DHT22;4763;48.370;10.874;2023-12-29T17:34:35;8.90;99.90
9450;DHT22;4763;48.370;10.874;2023-12-29T17:37:23;8.80;99.90
9450;DHT22;4763;48.370;10.874;2023-12-29T17:40:12;8.80;99.90
9450;DHT22;4763;48.370;10.874;2023-12-29T17:42:59;8.80;99.90
9450;DHT22;4763;48.370;10.874;2023-12-29T17:45:48;8.80;99.90
9450;DHT22;4763;48.370;10.874;2023-12-29T17:48:35;8.70;99.90
9450;DHT22;4763;48.370;10.874;2023-12-29T17:51:22;8.70;99.90
9450;DHT22;4763;48.370;10.874;2023-12-29T17:54:15;8.60;99.90
9450;DHT22;4763;48.370;10.874;2023-12-29T17:57:03;8.50;99.90
9450;DHT22;4763;48.370;10.874;2023-12-29T17:59:50;8.50;99.90
9450;DHT22;4763;48.370;10.874;2023-12-29T18:02:37;8.60;99.90
9450;DHT22;4763;48.370;10.874;2023-12-29T18:05:24;8.60;99.90
9450;DHT22;4763;48.370;10.874;2023-12-29T18:08:12;8.50;99.90
9450;DHT22;4763;48.370;10.874;2023-12-29T18:11:05;8.40;99.90
9450;DHT22;4763;48.370;10.874;2023-12-29T18:13:52;8.40;99.90
9450;DHT22;4763;48.370;10.874;2023-12-29T18:16:41;8.40;99.90
9450;DHT22;4763;48.370;10.874;2023-12-29T18:19:28;8.40;99.90
9450;DHT22;4763;48.370;10.874;2023-12-29T18:22:18;8.40;99.90
9450;DHT22;4763;48.370;10.874;2023-12-29T18:25:06;8.40;99.90
9450;DHT22;4763;48.370;10.874;2023-12-29T18:27:55;8.50;99.90
9450;DHT22;4763;48.370;10.874;2023-12-29T18:30:42;8.50;99.90
9450;DHT22;4763;48.370;10.874;2023-12-29T18:33:30;8.50;99.90
9450;DHT22;4763;48.370;10.874;2023-12-29T18:36:18;8.70;99.90
9450;DHT22;4763;48.370;10.874;2023-12-29T18:39:05;8.70;99.90
9450;DHT22;4763;48.370;10.874;2023-12-29T18:41:52;8.70;99.90
9450;DHT22;4763;48.370;10.874;2023-12-29T18:44:41;8.60;99.90